Weather History for Grants-Milan, NM

Change the Weather History Date:

Thursday, August 22, 2013

  Actual Average Record
Temperature  
Mean Temperature 68 °F -  
Max Temperature 85 °F 84 °F 94 °F (1991)
Min Temperature 51 °F 51 °F 37 °F (1964)
Cooling Degree Days 3    
Growing Degree Days 18 (Base 50)    
Moisture  
Dew Point 47 °F    
Average Humidity 51    
Maximum Humidity 92    
Minimum Humidity 18    
Precipitation  
Precipitation 0.00 in - - ()
Sea Level Pressure  
Sea Level Pressure 30.29 in    
Wind  
Wind Speed 5 mph (South)    
Max Wind Speed 16 mph    
Max Gust Speed 21 mph    
Visibility 10 miles    
Events      
Averages and records for this station are not official NWS values.
T = Trace of Precipitation, MM = Missing Value Source: NWS Daily Summary

Daily Weather History Graph

Daily Weather History Graph

Search for Another Location

Airport:

Trip Planner

Search our weather history database for the weather conditions in past years. The results will help you decide how hot, cold, wet, or windy it might be!

Date:

Astronomy

Aug. 22, 2013 Rise Set
Actual Time 6:36 AM MDT 7:51 PM MDT
Civil Twilight 6:10 AM MDT 8:17 PM MDT
Nautical Twilight 5:38 AM MDT 8:49 PM MDT
Astronomical Twilight 5:06 AM MDT 9:21 PM MDT
Moon 8:44 PM MDT (8/22) 8:22 AM MDT (8/22)
Length of Visible Light 14h 07m
Length of Day
13h 14m
Waning Gibbous, 96% of the Moon is Illuminated
Aug 22
Waning Gibbous
Aug 28
Last Quarter
Sep 5
New
Sep 12
First Quarter
Sep 19
Full

Hourly Weather History & Observations

Time (MDT) Temp. Dew Point Humidity Pressure Visibility Wind Dir Wind Speed Gust Speed Precip Events Conditions
12:15 AM 63.9 °F 52.0 °F 65% 30.34 in 10.0 mi NNW 5.8 mph - N/A   Scattered Clouds
12:35 AM 62.8 °F 52.0 °F 68% 30.34 in 10.0 mi NW 5.8 mph - N/A   Clear
12:55 AM 62.4 °F 51.8 °F 68% 30.34 in 10.0 mi NW 5.8 mph - N/A   Clear
1:15 AM 62.2 °F 50.9 °F 66% 30.34 in 10.0 mi NNW 5.8 mph - N/A   Clear
1:35 AM 60.8 °F 51.6 °F 72% 30.34 in 10.0 mi NNW 3.5 mph - N/A   Clear
1:55 AM 59.0 °F 51.3 °F 75% 30.34 in 10.0 mi NNW 4.6 mph - N/A   Clear
2:15 AM 58.1 °F 51.3 °F 78% 30.34 in 10.0 mi NW 4.6 mph - N/A   Clear
2:35 AM 58.5 °F 51.4 °F 77% 30.33 in 10.0 mi NW 5.8 mph - N/A   Clear
2:55 AM 57.9 °F 50.9 °F 77% 30.33 in 10.0 mi WNW 4.6 mph - N/A   Clear
3:15 AM 57.4 °F 50.4 °F 77% 30.32 in 10.0 mi NNW 3.5 mph - N/A   Clear
3:35 AM 57.2 °F 50.7 °F 79% 30.32 in 10.0 mi NNW 3.5 mph - N/A   Clear
3:55 AM 55.2 °F 50.0 °F 83% 30.32 in 10.0 mi NNW 4.6 mph - N/A   Clear
4:15 AM 53.6 °F 49.6 °F 86% 30.31 in 10.0 mi NNW 3.5 mph - N/A   Clear
4:35 AM 55.0 °F 50.4 °F 84% 30.32 in 10.0 mi NNW 3.5 mph - N/A   Clear
4:55 AM 54.0 °F 50.0 °F 86% 30.32 in 10.0 mi NW 3.5 mph - N/A   Clear
5:15 AM 55.4 °F 50.4 °F 83% 30.32 in 10.0 mi WNW 3.5 mph - N/A   Clear
5:35 AM 55.2 °F 50.7 °F 85% 30.32 in 10.0 mi West 6.9 mph - N/A   Clear
5:55 AM 54.7 °F 50.2 °F 85% 30.32 in 10.0 mi West 5.8 mph - N/A   Clear
6:15 AM 55.0 °F 50.4 °F 84% 30.33 in 10.0 mi Calm Calm - N/A   Clear
6:35 AM 53.6 °F 49.8 °F 87% 30.34 in 10.0 mi Calm Calm - N/A   Clear
6:55 AM 51.6 °F 48.7 °F 90% 30.34 in 10.0 mi Calm Calm - N/A   Clear
7:15 AM 52.3 °F 50.0 °F 92% 30.34 in 10.0 mi Calm Calm - N/A   Clear
7:35 AM 54.9 °F 51.1 °F 87% 30.35 in 10.0 mi Calm Calm - N/A   Clear
7:55 AM 57.9 °F 51.6 °F 80% 30.35 in 10.0 mi Calm Calm - N/A   Clear
8:15 AM 60.3 °F 52.3 °F 75% 30.35 in 10.0 mi Calm Calm - N/A   Clear
8:35 AM 61.7 °F 52.0 °F 70% 30.36 in 10.0 mi Calm Calm - N/A   Clear
8:55 AM 63.0 °F 52.0 °F 67% 30.36 in 10.0 mi Calm Calm - N/A   Clear
9:15 AM 64.8 °F 52.7 °F 65% 30.36 in 10.0 mi Calm Calm - N/A   Clear
9:35 AM 67.5 °F 52.3 °F 58% 30.35 in 10.0 mi East 3.5 mph - N/A   Clear
9:55 AM 70.0 °F 52.5 °F 54% 30.35 in 10.0 mi ESE 4.6 mph - N/A   Clear
10:15 AM 71.8 °F 52.0 °F 50% 30.35 in 10.0 mi SE 5.8 mph - N/A   Clear
10:35 AM 73.0 °F 52.7 °F 49% 30.35 in 10.0 mi SSE 4.6 mph - N/A   Clear
10:55 AM 75.6 °F 52.5 °F 45% 30.34 in 10.0 mi SSE 4.6 mph - N/A   Clear
11:15 AM 77.7 °F 51.4 °F 40% 30.34 in 10.0 mi South 5.8 mph - N/A   Clear
11:35 AM 79.0 °F 49.6 °F 36% 30.34 in 10.0 mi ESE 3.5 mph - N/A   Clear
11:55 AM 79.9 °F 45.0 °F 29% 30.32 in 10.0 mi Calm Calm - N/A   Clear
12:15 PM 82.4 °F 40.3 °F 22% 30.32 in 10.0 mi East 4.6 mph - N/A   Clear
12:35 PM 81.5 °F 42.1 °F 25% 30.32 in 10.0 mi SSW 8.1 mph - N/A   Clear
12:55 PM 82.9 °F 42.3 °F 24% 30.31 in 10.0 mi ESE 10.4 mph 17.3 mph N/A   Clear
1:15 PM 82.4 °F 41.7 °F 24% 30.30 in 10.0 mi Calm Calm - N/A   Clear
1:35 PM 82.8 °F 41.2 °F 23% 30.29 in 10.0 mi SW 4.6 mph - N/A   Clear
1:55 PM 83.7 °F 40.6 °F 22% 30.29 in 10.0 mi West 5.8 mph - N/A   Clear
2:15 PM 82.9 °F 40.3 °F 22% 30.28 in 10.0 mi SE 3.5 mph - N/A   Scattered Clouds
2:35 PM 83.8 °F 39.4 °F 21% 30.27 in 10.0 mi SE 8.1 mph - N/A   Scattered Clouds
2:55 PM 85.1 °F 36.7 °F 18% 30.26 in 10.0 mi East 4.6 mph - N/A   Clear
3:15 PM 85.5 °F 39.7 °F 20% 30.24 in 10.0 mi SSE 4.6 mph 10.4 mph N/A   Clear
3:35 PM 85.3 °F 40.1 °F 20% 30.24 in 10.0 mi South 9.2 mph - N/A   Clear
3:55 PM 85.5 °F 40.5 °F 20% 30.23 in 10.0 mi South 8.1 mph - N/A   Clear
4:15 PM 85.1 °F 41.2 °F 21% 30.22 in 10.0 mi South 13.8 mph 17.3 mph N/A   Clear
4:35 PM 85.1 °F 42.3 °F 22% 30.21 in 10.0 mi South 16.1 mph 20.7 mph N/A   Scattered Clouds
4:55 PM 83.5 °F 42.4 °F 23% 30.21 in 10.0 mi SSW 13.8 mph 18.4 mph N/A   Scattered Clouds
5:15 PM 83.8 °F 42.3 °F 23% 30.21 in 10.0 mi SSE 11.5 mph 19.6 mph N/A   Clear
5:35 PM 81.9 °F 40.1 °F 23% 30.21 in 10.0 mi South 11.5 mph - N/A   Clear
5:55 PM 82.0 °F 41.0 °F 23% 30.21 in 10.0 mi South 8.1 mph - N/A   Clear
6:15 PM 81.5 °F 42.4 °F 25% 30.20 in 10.0 mi South 5.8 mph - N/A   Clear
6:35 PM 81.0 °F 41.9 °F 25% 30.20 in 10.0 mi Calm Calm - N/A   Clear
6:55 PM 79.5 °F 43.0 °F 27% 30.20 in 10.0 mi SSE 3.5 mph - N/A   Clear
7:15 PM 77.0 °F 42.6 °F 29% 30.20 in 10.0 mi SE 5.8 mph - N/A   Clear
7:35 PM 73.4 °F 45.3 °F 37% 30.20 in 10.0 mi Calm Calm - N/A   Clear
7:55 PM 70.9 °F 45.1 °F 40% 30.20 in 10.0 mi SSW 3.5 mph - N/A   Clear
8:15 PM 71.1 °F 44.2 °F 38% 30.21 in 10.0 mi SW 6.9 mph - N/A   Clear
8:35 PM 70.2 °F 44.2 °F 39% 30.22 in 10.0 mi SW 5.8 mph - N/A   Clear
8:55 PM 69.4 °F 43.0 °F 38% 30.23 in 10.0 mi SE 4.6 mph - N/A   Clear
9:15 PM 64.2 °F 45.9 °F 51% 30.24 in 10.0 mi South 3.5 mph - N/A   Clear
9:35 PM 67.1 °F 43.3 °F 42% 30.25 in 10.0 mi SSE 9.2 mph - N/A   Clear
9:55 PM 68.0 °F 42.8 °F 40% 30.26 in 10.0 mi South 6.9 mph - N/A   Clear
10:15 PM 67.6 °F 43.0 °F 41% 30.26 in 10.0 mi SSE 8.1 mph - N/A   Clear
10:35 PM 68.2 °F 44.2 °F 42% 30.27 in 10.0 mi SSE 5.8 mph - N/A   Clear
10:55 PM 67.6 °F 46.2 °F 46% 30.27 in 10.0 mi Calm Calm - N/A   Clear
11:15 PM 67.6 °F 47.3 °F 48% 30.28 in 10.0 mi Calm Calm - N/A   Clear
11:35 PM 68.0 °F 47.5 °F 48% 30.28 in 10.0 mi Calm Calm - N/A   Clear
11:55 PM 64.6 °F 48.2 °F 55% 30.28 in 10.0 mi Calm Calm - N/A   Clear